sensor_id;sensor_type;location;lat;lon;timestamp;P1;durP1;ratioP1;P2;durP2;ratioP2
17052;SDS011;8643;48.824;11.422;2022-08-18T00:02:01;21.15;;;12.77;;
17052;SDS011;8643;48.824;11.422;2022-08-18T00:04:36;18.40;;;13.73;;
17052;SDS011;8643;48.824;11.422;2022-08-18T00:07:17;19.17;;;13.57;;
17052;SDS011;8643;48.824;11.422;2022-08-18T00:09:48;19.40;;;12.98;;
17052;SDS011;8643;48.824;11.422;2022-08-18T00:12:19;20.73;;;14.30;;
17052;SDS011;8643;48.824;11.422;2022-08-18T00:14:51;17.45;;;13.15;;
17052;SDS011;8643;48.824;11.422;2022-08-18T00:17:20;21.80;;;13.18;;
17052;SDS011;8643;48.824;11.422;2022-08-18T00:19:50;18.90;;;12.82;;
17052;SDS011;8643;48.824;11.422;2022-08-18T00:22:20;17.80;;;12.88;;
17052;SDS011;8643;48.824;11.422;2022-08-18T00:24:49;16.42;;;12.52;;
17052;SDS011;8643;48.824;11.422;2022-08-18T00:27:21;19.42;;;13.07;;
17052;SDS011;8643;48.824;11.422;2022-08-18T00:29:55;15.95;;;12.60;;
17052;SDS011;8643;48.824;11.422;2022-08-18T00:32:28;15.07;;;11.40;;
17052;SDS011;8643;48.824;11.422;2022-08-18T00:35:03;15.27;;;11.40;;
17052;SDS011;8643;48.824;11.422;2022-08-18T00:37:36;15.18;;;11.63;;
17052;SDS011;8643;48.824;11.422;2022-08-18T00:40:05;15.13;;;11.48;;
17052;SDS011;8643;48.824;11.422;2022-08-18T00:42:39;16.05;;;11.23;;
17052;SDS011;8643;48.824;11.422;2022-08-18T00:45:13;13.25;;;11.73;;
17052;SDS011;8643;48.824;11.422;2022-08-18T00:47:45;15.05;;;11.00;;
17052;SDS011;8643;48.824;11.422;2022-08-18T00:50:15;16.02;;;11.43;;
17052;SDS011;8643;48.824;11.422;2022-08-18T00:52:51;15.20;;;11.45;;
17052;SDS011;8643;48.824;11.422;2022-08-18T00:55:25;15.77;;;11.43;;
17052;SDS011;8643;48.824;11.422;2022-08-18T00:57:58;13.23;;;10.90;;
17052;SDS011;8643;48.824;11.422;2022-08-18T01:00:34;15.18;;;11.43;;
17052;SDS011;8643;48.824;11.422;2022-08-18T01:03:04;16.02;;;11.82;;
17052;SDS011;8643;48.824;11.422;2022-08-18T01:05:42;16.73;;;12.68;;
17052;SDS011;8643;48.824;11.422;2022-08-18T01:08:19;11.48;;;10.10;;
17052;SDS011;8643;48.824;11.422;2022-08-18T01:10:55;16.17;;;11.38;;
17052;SDS011;8643;48.824;11.422;2022-08-18T01:13:27;13.32;;;10.80;;
17052;SDS011;8643;48.824;11.422;2022-08-18T01:15:59;15.10;;;11.68;;
17052;SDS011;8643;48.824;11.422;2022-08-18T01:18:49;17.10;;;11.85;;
17052;SDS011;8643;48.824;11.422;2022-08-18T01:21:36;14.25;;;11.60;;
17052;SDS011;8643;48.824;11.422;2022-08-18T01:24:21;17.50;;;12.65;;
17052;SDS011;8643;48.824;11.422;2022-08-18T01:27:08;15.35;;;12.07;;
17052;SDS011;8643;48.824;11.422;2022-08-18T01:29:44;15.68;;;11.43;;
17052;SDS011;8643;48.824;11.422;2022-08-18T01:32:14;13.15;;;11.40;;
17052;SDS011;8643;48.824;11.422;2022-08-18T01:34:48;13.23;;;11.27;;
17052;SDS011;8643;48.824;11.422;2022-08-18T01:37:21;15.15;;;12.73;;
17052;SDS011;8643;48.824;11.422;2022-08-18T01:39:53;13.25;;;11.80;;
17052;SDS011;8643;48.824;11.422;2022-08-18T01:42:42;16.15;;;12.02;;
17052;SDS011;8643;48.824;11.422;2022-08-18T01:45:12;13.23;;;11.77;;
17052;SDS011;8643;48.824;11.422;2022-08-18T01:47:43;14.38;;;11.80;;
17052;SDS011;8643;48.824;11.422;2022-08-18T01:50:23;14.65;;;11.75;;
17052;SDS011;8643;48.824;11.422;2022-08-18T01:52:52;14.45;;;12.18;;
17052;SDS011;8643;48.824;11.422;2022-08-18T01:55:22;14.77;;;11.70;;
17052;SDS011;8643;48.824;11.422;2022-08-18T01:57:53;13.70;;;11.40;;
17052;SDS011;8643;48.824;11.422;2022-08-18T02:00:22;14.23;;;11.57;;
17052;SDS011;8643;48.824;11.422;2022-08-18T02:02:51;15.57;;;10.90;;
17052;SDS011;8643;48.824;11.422;2022-08-18T02:05:29;12.38;;;10.05;;
17052;SDS011;8643;48.824;11.422;2022-08-18T02:08:03;13.27;;;10.45;;
17052;SDS011;8643;48.824;11.422;2022-08-18T02:10:35;12.43;;;10.48;;
17052;SDS011;8643;48.824;11.422;2022-08-18T02:13:04;12.07;;;9.85;;
17052;SDS011;8643;48.824;11.422;2022-08-18T02:15:33;11.35;;;9.82;;
17052;SDS011;8643;48.824;11.422;2022-08-18T02:18:01;13.55;;;9.40;;
17052;SDS011;8643;48.824;11.422;2022-08-18T02:20:30;11.40;;;9.88;;
17052;SDS011;8643;48.824;11.422;2022-08-18T02:22:58;12.38;;;9.90;;
17052;SDS011;8643;48.824;11.422;2022-08-18T02:25:28;13.02;;;10.23;;
17052;SDS011;8643;48.824;11.422;2022-08-18T02:27:58;12.57;;;9.32;;
17052;SDS011;8643;48.824;11.422;2022-08-18T02:30:27;12.30;;;9.90;;
17052;SDS011;8643;48.824;11.422;2022-08-18T02:32:56;11.20;;;9.40;;
17052;SDS011;8643;48.824;11.422;2022-08-18T02:35:24;11.68;;;9.48;;
17052;SDS011;8643;48.824;11.422;2022-08-18T02:37:52;9.85;;;8.85;;
17052;SDS011;8643;48.824;11.422;2022-08-18T02:40:21;12.10;;;8.95;;
17052;SDS011;8643;48.824;11.422;2022-08-18T02:42:49;10.80;;;9.07;;
17052;SDS011;8643;48.824;11.422;2022-08-18T02:45:21;13.05;;;9.25;;
17052;SDS011;8643;48.824;11.422;2022-08-18T02:47:50;9.82;;;8.82;;
17052;SDS011;8643;48.824;11.422;2022-08-18T02:50:20;10.73;;;9.63;;
17052;SDS011;8643;48.824;11.422;2022-08-18T02:52:50;12.07;;;9.13;;
17052;SDS011;8643;48.824;11.422;2022-08-18T02:55:19;13.80;;;9.18;;
17052;SDS011;8643;48.824;11.422;2022-08-18T02:57:48;10.65;;;9.13;;
17052;SDS011;8643;48.824;11.422;2022-08-18T03:00:16;12.00;;;9.38;;
17052;SDS011;8643;48.824;11.422;2022-08-18T03:02:47;11.10;;;9.68;;
17052;SDS011;8643;48.824;11.422;2022-08-18T03:05:18;13.40;;;10.07;;
17052;SDS011;8643;48.824;11.422;2022-08-18T03:07:47;12.38;;;10.20;;
17052;SDS011;8643;48.824;11.422;2022-08-18T03:10:16;10.82;;;8.60;;
17052;SDS011;8643;48.824;11.422;2022-08-18T03:12:58;11.07;;;9.20;;
17052;SDS011;8643;48.824;11.422;2022-08-18T03:15:27;10.85;;;8.93;;
17052;SDS011;8643;48.824;11.422;2022-08-18T03:17:57;13.82;;;10.48;;
17052;SDS011;8643;48.824;11.422;2022-08-18T03:20:26;13.23;;;10.20;;
17052;SDS011;8643;48.824;11.422;2022-08-18T03:22:56;12.00;;;10.48;;
17052;SDS011;8643;48.824;11.422;2022-08-18T03:25:35;13.82;;;11.43;;
17052;SDS011;8643;48.824;11.422;2022-08-18T03:28:09;14.85;;;11.48;;
17052;SDS011;8643;48.824;11.422;2022-08-18T03:30:38;14.07;;;11.05;;
17052;SDS011;8643;48.824;11.422;2022-08-18T03:33:08;15.00;;;11.95;;
17052;SDS011;8643;48.824;11.422;2022-08-18T03:35:37;14.45;;;12.23;;
17052;SDS011;8643;48.824;11.422;2022-08-18T03:38:07;15.95;;;11.60;;
17052;SDS011;8643;48.824;11.422;2022-08-18T03:40:35;13.20;;;11.38;;
17052;SDS011;8643;48.824;11.422;2022-08-18T03:43:04;12.63;;;11.20;;
17052;SDS011;8643;48.824;11.422;2022-08-18T03:45:53;13.45;;;11.50;;
17052;SDS011;8643;48.824;11.422;2022-08-18T03:48:23;14.10;;;12.57;;
17052;SDS011;8643;48.824;11.422;2022-08-18T03:50:51;16.63;;;13.02;;
17052;SDS011;8643;48.824;11.422;2022-08-18T03:53:20;16.40;;;12.52;;
17052;SDS011;8643;48.824;11.422;2022-08-18T03:55:48;15.15;;;12.95;;
17052;SDS011;8643;48.824;11.422;2022-08-18T03:58:16;16.33;;;13.35;;
17052;SDS011;8643;48.824;11.422;2022-08-18T04:00:45;14.82;;;12.88;;
17052;SDS011;8643;48.824;11.422;2022-08-18T04:03:13;15.45;;;12.43;;
17052;SDS011;8643;48.824;11.422;2022-08-18T04:05:43;18.52;;;12.95;;
17052;SDS011;8643;48.824;11.422;2022-08-18T04:08:13;15.15;;;12.68;;
17052;SDS011;8643;48.824;11.422;2022-08-18T04:10:42;15.93;;;13.02;;
17052;SDS011;8643;48.824;11.422;2022-08-18T04:13:11;17.98;;;13.88;;
17052;SDS011;8643;48.824;11.422;2022-08-18T04:15:39;15.70;;;13.60;;
17052;SDS011;8643;48.824;11.422;2022-08-18T04:18:07;19.50;;;13.98;;
17052;SDS011;8643;48.824;11.422;2022-08-18T04:20:37;20.20;;;14.45;;
17052;SDS011;8643;48.824;11.422;2022-08-18T04:23:26;17.38;;;13.63;;
17052;SDS011;8643;48.824;11.422;2022-08-18T04:26:05;15.77;;;13.35;;
17052;SDS011;8643;48.824;11.422;2022-08-18T04:28:44;17.60;;;14.32;;
17052;SDS011;8643;48.824;11.422;2022-08-18T04:31:13;17.70;;;14.70;;
17052;SDS011;8643;48.824;11.422;2022-08-18T04:33:43;18.60;;;14.48;;
17052;SDS011;8643;48.824;11.422;2022-08-18T04:36:12;19.00;;;14.27;;
17052;SDS011;8643;48.824;11.422;2022-08-18T04:38:47;17.13;;;14.57;;
17052;SDS011;8643;48.824;11.422;2022-08-18T04:41:16;22.83;;;15.35;;
17052;SDS011;8643;48.824;11.422;2022-08-18T04:43:45;19.00;;;14.60;;
17052;SDS011;8643;48.824;11.422;2022-08-18T04:46:18;19.73;;;14.85;;
17052;SDS011;8643;48.824;11.422;2022-08-18T04:48:49;18.55;;;15.10;;
17052;SDS011;8643;48.824;11.422;2022-08-18T04:51:24;17.33;;;14.45;;
17052;SDS011;8643;48.824;11.422;2022-08-18T04:54:17;16.63;;;14.30;;
17052;SDS011;8643;48.824;11.422;2022-08-18T04:56:44;17.45;;;15.07;;
17052;SDS011;8643;48.824;11.422;2022-08-18T04:59:12;21.58;;;15.95;;
17052;SDS011;8643;48.824;11.422;2022-08-18T05:01:42;19.42;;;15.82;;
17052;SDS011;8643;48.824;11.422;2022-08-18T05:04:13;20.45;;;16.10;;
17052;SDS011;8643;48.824;11.422;2022-08-18T05:06:44;18.20;;;15.98;;
17052;SDS011;8643;48.824;11.422;2022-08-18T05:09:13;20.95;;;16.88;;
17052;SDS011;8643;48.824;11.422;2022-08-18T05:11:49;22.50;;;17.40;;
17052;SDS011;8643;48.824;11.422;2022-08-18T05:14:18;22.00;;;17.00;;
17052;SDS011;8643;48.824;11.422;2022-08-18T05:16:47;23.88;;;17.77;;
17052;SDS011;8643;48.824;11.422;2022-08-18T05:19:20;19.17;;;16.77;;
17052;SDS011;8643;48.824;11.422;2022-08-18T05:21:52;21.35;;;16.90;;
17052;SDS011;8643;48.824;11.422;2022-08-18T05:24:26;20.35;;;17.73;;
17052;SDS011;8643;48.824;11.422;2022-08-18T05:27:04;23.17;;;17.40;;
17052;SDS011;8643;48.824;11.422;2022-08-18T05:29:33;24.58;;;18.23;;
17052;SDS011;8643;48.824;11.422;2022-08-18T05:32:10;20.70;;;16.98;;
17052;SDS011;8643;48.824;11.422;2022-08-18T05:35:01;18.20;;;15.32;;
17052;SDS011;8643;48.824;11.422;2022-08-18T05:37:35;20.83;;;16.90;;
17052;SDS011;8643;48.824;11.422;2022-08-18T05:40:18;17.65;;;14.57;;
17052;SDS011;8643;48.824;11.422;2022-08-18T05:42:52;20.33;;;15.88;;
17052;SDS011;8643;48.824;11.422;2022-08-18T05:45:25;18.50;;;16.02;;
17052;SDS011;8643;48.824;11.422;2022-08-18T05:47:55;20.90;;;16.00;;
17052;SDS011;8643;48.824;11.422;2022-08-18T05:50:26;18.75;;;15.77;;
17052;SDS011;8643;48.824;11.422;2022-08-18T05:53:03;21.83;;;16.52;;
17052;SDS011;8643;48.824;11.422;2022-08-18T05:55:41;21.08;;;15.43;;
17052;SDS011;8643;48.824;11.422;2022-08-18T05:58:48;20.23;;;15.60;;
17052;SDS011;8643;48.824;11.422;2022-08-18T06:01:21;17.83;;;14.50;;
17052;SDS011;8643;48.824;11.422;2022-08-18T06:04:03;19.63;;;16.05;;
17052;SDS011;8643;48.824;11.422;2022-08-18T06:06:42;18.40;;;15.60;;
17052;SDS011;8643;48.824;11.422;2022-08-18T06:09:16;17.38;;;15.40;;
17052;SDS011;8643;48.824;11.422;2022-08-18T06:11:50;17.73;;;14.52;;
17052;SDS011;8643;48.824;11.422;2022-08-18T06:14:26;17.02;;;13.80;;
17052;SDS011;8643;48.824;11.422;2022-08-18T06:17:00;16.95;;;14.27;;
17052;SDS011;8643;48.824;11.422;2022-08-18T06:19:59;17.55;;;14.48;;
17052;SDS011;8643;48.824;11.422;2022-08-18T06:22:42;19.95;;;16.15;;
17052;SDS011;8643;48.824;11.422;2022-08-18T06:25:24;15.65;;;13.95;;
17052;SDS011;8643;48.824;11.422;2022-08-18T06:28:02;18.67;;;16.08;;
17052;SDS011;8643;48.824;11.422;2022-08-18T06:30:43;17.58;;;14.38;;
17052;SDS011;8643;48.824;11.422;2022-08-18T06:33:32;19.38;;;13.40;;
17052;SDS011;8643;48.824;11.422;2022-08-18T06:36:21;17.88;;;13.35;;
17052;SDS011;8643;48.824;11.422;2022-08-18T06:39:04;17.02;;;12.73;;
17052;SDS011;8643;48.824;11.422;2022-08-18T06:41:50;16.55;;;13.80;;
17052;SDS011;8643;48.824;11.422;2022-08-18T06:44:21;18.33;;;13.63;;
17052;SDS011;8643;48.824;11.422;2022-08-18T06:47:00;16.52;;;13.07;;
17052;SDS011;8643;48.824;11.422;2022-08-18T06:49:42;15.63;;;13.02;;
17052;SDS011;8643;48.824;11.422;2022-08-18T06:52:17;16.60;;;12.95;;
17052;SDS011;8643;48.824;11.422;2022-08-18T06:54:53;15.45;;;13.55;;
17052;SDS011;8643;48.824;11.422;2022-08-18T06:57:25;17.02;;;12.93;;
17052;SDS011;8643;48.824;11.422;2022-08-18T07:00:02;18.35;;;13.80;;
17052;SDS011;8643;48.824;11.422;2022-08-18T07:02:45;14.52;;;13.02;;
17052;SDS011;8643;48.824;11.422;2022-08-18T07:05:21;15.75;;;14.05;;
17052;SDS011;8643;48.824;11.422;2022-08-18T07:08:03;16.88;;;14.00;;
17052;SDS011;8643;48.824;11.422;2022-08-18T07:10:38;16.42;;;13.52;;
17052;SDS011;8643;48.824;11.422;2022-08-18T07:13:19;15.65;;;13.60;;
17052;SDS011;8643;48.824;11.422;2022-08-18T07:15:53;15.13;;;13.43;;
17052;SDS011;8643;48.824;11.422;2022-08-18T07:18:53;15.43;;;12.43;;
17052;SDS011;8643;48.824;11.422;2022-08-18T07:21:32;13.63;;;12.23;;
17052;SDS011;8643;48.824;11.422;2022-08-18T07:24:06;15.52;;;12.90;;
17052;SDS011;8643;48.824;11.422;2022-08-18T07:26:57;16.58;;;13.57;;
17052;SDS011;8643;48.824;11.422;2022-08-18T07:29:29;15.35;;;13.32;;
17052;SDS011;8643;48.824;11.422;2022-08-18T07:32:01;15.75;;;13.48;;
17052;SDS011;8643;48.824;11.422;2022-08-18T07:34:49;15.52;;;12.70;;
17052;SDS011;8643;48.824;11.422;2022-08-18T07:37:25;19.70;;;14.93;;
17052;SDS011;8643;48.824;11.422;2022-08-18T07:40:00;16.40;;;13.98;;
17052;SDS011;8643;48.824;11.422;2022-08-18T07:42:41;23.70;;;14.63;;
17052;SDS011;8643;48.824;11.422;2022-08-18T07:45:28;17.20;;;13.73;;
17052;SDS011;8643;48.824;11.422;2022-08-18T07:48:05;16.63;;;12.88;;
17052;SDS011;8643;48.824;11.422;2022-08-18T07:51:04;16.33;;;14.13;;
17052;SDS011;8643;48.824;11.422;2022-08-18T07:53:46;19.42;;;13.85;;
17052;SDS011;8643;48.824;11.422;2022-08-18T07:56:31;16.92;;;12.93;;
17052;SDS011;8643;48.824;11.422;2022-08-18T07:59:17;14.82;;;12.43;;
17052;SDS011;8643;48.824;11.422;2022-08-18T08:01:59;15.55;;;12.23;;
17052;SDS011;8643;48.824;11.422;2022-08-18T08:04:49;13.20;;;10.82;;
17052;SDS011;8643;48.824;11.422;2022-08-18T08:07:40;11.82;;;10.57;;
17052;SDS011;8643;48.824;11.422;2022-08-18T08:10:21;11.82;;;10.38;;
17052;SDS011;8643;48.824;11.422;2022-08-18T08:13:04;12.20;;;9.75;;
17052;SDS011;8643;48.824;11.422;2022-08-18T08:16:07;10.80;;;8.80;;
17052;SDS011;8643;48.824;11.422;2022-08-18T08:18:48;9.50;;;8.50;;
17052;SDS011;8643;48.824;11.422;2022-08-18T08:21:38;9.65;;;8.50;;
17052;SDS011;8643;48.824;11.422;2022-08-18T08:24:24;9.50;;;8.50;;
17052;SDS011;8643;48.824;11.422;2022-08-18T08:27:07;10.25;;;8.10;;
17052;SDS011;8643;48.824;11.422;2022-08-18T08:29:48;8.25;;;7.30;;
17052;SDS011;8643;48.824;11.422;2022-08-18T08:32:34;9.05;;;7.38;;
17052;SDS011;8643;48.824;11.422;2022-08-18T08:35:10;9.88;;;7.28;;
17052;SDS011;8643;48.824;11.422;2022-08-18T08:38:05;8.23;;;6.75;;
17052;SDS011;8643;48.824;11.422;2022-08-18T08:41:04;9.73;;;6.88;;
17052;SDS011;8643;48.824;11.422;2022-08-18T08:43:39;10.63;;;6.78;;
17052;SDS011;8643;48.824;11.422;2022-08-18T08:46:14;9.57;;;7.35;;
17052;SDS011;8643;48.824;11.422;2022-08-18T08:48:48;7.30;;;6.50;;
17052;SDS011;8643;48.824;11.422;2022-08-18T08:51:31;7.80;;;6.63;;
17052;SDS011;8643;48.824;11.422;2022-08-18T08:54:08;7.75;;;6.50;;
17052;SDS011;8643;48.824;11.422;2022-08-18T08:56:45;7.80;;;6.68;;
17052;SDS011;8643;48.824;11.422;2022-08-18T08:59:18;6.97;;;6.00;;
17052;SDS011;8643;48.824;11.422;2022-08-18T09:01:52;6.53;;;5.82;;
17052;SDS011;8643;48.824;11.422;2022-08-18T09:04:59;6.97;;;6.00;;
17052;SDS011;8643;48.824;11.422;2022-08-18T09:07:44;9.27;;;6.70;;
17052;SDS011;8643;48.824;11.422;2022-08-18T09:10:44;7.70;;;6.35;;
17052;SDS011;8643;48.824;11.422;2022-08-18T09:13:43;7.25;;;6.15;;
17052;SDS011;8643;48.824;11.422;2022-08-18T09:16:44;6.90;;;6.20;;
17052;SDS011;8643;48.824;11.422;2022-08-18T09:19:45;8.57;;;6.93;;
17052;SDS011;8643;48.824;11.422;2022-08-18T09:22:31;8.23;;;6.38;;
17052;SDS011;8643;48.824;11.422;2022-08-18T09:25:28;11.13;;;6.60;;
17052;SDS011;8643;48.824;11.422;2022-08-18T09:28:10;8.90;;;6.47;;
17052;SDS011;8643;48.824;11.422;2022-08-18T09:30:45;6.72;;;6.03;;
17052;SDS011;8643;48.824;11.422;2022-08-18T09:33:48;7.00;;;6.30;;
17052;SDS011;8643;48.824;11.422;2022-08-18T09:36:58;7.10;;;6.40;;
17052;SDS011;8643;48.824;11.422;2022-08-18T09:39:38;9.60;;;7.35;;
17052;SDS011;8643;48.824;11.422;2022-08-18T09:42:39;6.40;;;5.80;;
17052;SDS011;8643;48.824;11.422;2022-08-18T09:48:22;7.75;;;6.65;;
17052;SDS011;8643;48.824;11.422;2022-08-18T09:50:59;8.40;;;5.90;;
17052;SDS011;8643;48.824;11.422;2022-08-18T09:53:54;7.45;;;6.72;;
17052;SDS011;8643;48.824;11.422;2022-08-18T10:03:03;9.00;;;6.28;;
17052;SDS011;8643;48.824;11.422;2022-08-18T10:09:13;7.40;;;6.20;;
17052;SDS011;8643;48.824;11.422;2022-08-18T10:15:10;7.05;;;6.35;;
17052;SDS011;8643;48.824;11.422;2022-08-18T10:18:08;6.50;;;5.90;;
17052;SDS011;8643;48.824;11.422;2022-08-18T10:20:58;9.35;;;6.65;;
17052;SDS011;8643;48.824;11.422;2022-08-18T10:23:45;7.30;;;6.60;;
17052;SDS011;8643;48.824;11.422;2022-08-18T10:30:04;6.68;;;6.07;;
17052;SDS011;8643;48.824;11.422;2022-08-18T10:32:59;8.63;;;6.43;;
17052;SDS011;8643;48.824;11.422;2022-08-18T10:41:21;7.50;;;6.25;;
17052;SDS011;8643;48.824;11.422;2022-08-18T10:43:56;7.45;;;6.20;;
17052;SDS011;8643;48.824;11.422;2022-08-18T10:46:48;6.93;;;6.22;;
17052;SDS011;8643;48.824;11.422;2022-08-18T10:49:20;7.97;;;5.95;;
17052;SDS011;8643;48.824;11.422;2022-08-18T10:55:35;6.55;;;5.80;;
17052;SDS011;8643;48.824;11.422;2022-08-18T10:58:22;6.68;;;6.07;;
17052;SDS011;8643;48.824;11.422;2022-08-18T11:01:46;6.57;;;5.90;;
17052;SDS011;8643;48.824;11.422;2022-08-18T11:04:39;6.60;;;5.88;;
17052;SDS011;8643;48.824;11.422;2022-08-18T11:07:25;6.30;;;5.70;;
17052;SDS011;8643;48.824;11.422;2022-08-18T11:09:59;7.65;;;5.30;;
17052;SDS011;8643;48.824;11.422;2022-08-18T11:13:04;5.90;;;5.30;;
17052;SDS011;8643;48.824;11.422;2022-08-18T11:15:50;6.25;;;5.65;;
17052;SDS011;8643;48.824;11.422;2022-08-18T11:18:39;6.20;;;5.60;;
17052;SDS011;8643;48.824;11.422;2022-08-18T11:24:11;6.80;;;5.72;;
17052;SDS011;8643;48.824;11.422;2022-08-18T11:26:45;8.23;;;5.85;;
17052;SDS011;8643;48.824;11.422;2022-08-18T11:29:21;6.18;;;5.57;;
17052;SDS011;8643;48.824;11.422;2022-08-18T11:31:59;7.30;;;5.55;;
17052;SDS011;8643;48.824;11.422;2022-08-18T11:34:37;6.00;;;5.40;;
17052;SDS011;8643;48.824;11.422;2022-08-18T11:37:19;14.73;;;6.28;;
17052;SDS011;8643;48.824;11.422;2022-08-18T11:39:53;6.63;;;5.90;;
17052;SDS011;8643;48.824;11.422;2022-08-18T11:42:26;6.95;;;5.90;;
17052;SDS011;8643;48.824;11.422;2022-08-18T11:45:21;6.70;;;6.10;;
17052;SDS011;8643;48.824;11.422;2022-08-18T11:48:01;6.65;;;5.55;;
17052;SDS011;8643;48.824;11.422;2022-08-18T11:50:57;6.50;;;5.82;;
17052;SDS011;8643;48.824;11.422;2022-08-18T11:53:37;6.28;;;5.13;;
17052;SDS011;8643;48.824;11.422;2022-08-18T11:56:38;7.07;;;5.53;;
17052;SDS011;8643;48.824;11.422;2022-08-18T11:59:29;6.55;;;5.80;;
17052;SDS011;8643;48.824;11.422;2022-08-18T12:02:20;6.20;;;5.60;;
17052;SDS011;8643;48.824;11.422;2022-08-18T12:04:53;6.80;;;6.10;;
17052;SDS011;8643;48.824;11.422;2022-08-18T12:07:48;6.90;;;6.00;;
17052;SDS011;8643;48.824;11.422;2022-08-18T12:10:23;7.10;;;6.40;;
17052;SDS011;8643;48.824;11.422;2022-08-18T12:12:55;6.90;;;6.05;;
17052;SDS011;8643;48.824;11.422;2022-08-18T12:15:28;7.38;;;6.30;;
17052;SDS011;8643;48.824;11.422;2022-08-18T12:18:14;8.60;;;5.25;;
17052;SDS011;8643;48.824;11.422;2022-08-18T12:20:55;7.18;;;6.03;;
17052;SDS011;8643;48.824;11.422;2022-08-18T12:23:26;9.02;;;5.35;;
17052;SDS011;8643;48.824;11.422;2022-08-18T12:26:15;7.22;;;5.68;;
17052;SDS011;8643;48.824;11.422;2022-08-18T12:29:03;6.25;;;5.57;;
17052;SDS011;8643;48.824;11.422;2022-08-18T12:31:34;6.10;;;5.57;;
17052;SDS011;8643;48.824;11.422;2022-08-18T12:34:14;7.05;;;5.40;;
17052;SDS011;8643;48.824;11.422;2022-08-18T12:36:53;7.40;;;6.28;;
17052;SDS011;8643;48.824;11.422;2022-08-18T12:39:26;7.03;;;5.32;;
17052;SDS011;8643;48.824;11.422;2022-08-18T12:41:57;6.28;;;5.68;;
17052;SDS011;8643;48.824;11.422;2022-08-18T12:44:26;6.90;;;5.57;;
17052;SDS011;8643;48.824;11.422;2022-08-18T12:46:55;7.40;;;5.88;;
17052;SDS011;8643;48.824;11.422;2022-08-18T12:49:45;6.93;;;6.22;;
17052;SDS011;8643;48.824;11.422;2022-08-18T12:52:16;8.43;;;6.18;;
17052;SDS011;8643;48.824;11.422;2022-08-18T12:54:46;9.70;;;6.43;;
17052;SDS011;8643;48.824;11.422;2022-08-18T12:57:22;6.85;;;5.97;;
17052;SDS011;8643;48.824;11.422;2022-08-18T13:00:14;6.63;;;6.00;;
17052;SDS011;8643;48.824;11.422;2022-08-18T13:02:44;6.55;;;5.75;;
17052;SDS011;8643;48.824;11.422;2022-08-18T13:05:14;6.10;;;5.50;;
17052;SDS011;8643;48.824;11.422;2022-08-18T13:07:51;6.15;;;5.65;;
17052;SDS011;8643;48.824;11.422;2022-08-18T13:10:23;6.53;;;5.93;;
17052;SDS011;8643;48.824;11.422;2022-08-18T13:13:11;6.78;;;6.00;;
17052;SDS011;8643;48.824;11.422;2022-08-18T13:15:41;6.20;;;5.60;;
17052;SDS011;8643;48.824;11.422;2022-08-18T13:18:26;6.30;;;5.70;;
17052;SDS011;8643;48.824;11.422;2022-08-18T13:20:56;6.70;;;5.88;;
17052;SDS011;8643;48.824;11.422;2022-08-18T13:23:25;6.28;;;5.60;;
17052;SDS011;8643;48.824;11.422;2022-08-18T13:25:54;8.30;;;5.53;;
17052;SDS011;8643;48.824;11.422;2022-08-18T13:28:29;6.80;;;5.55;;
17052;SDS011;8643;48.824;11.422;2022-08-18T13:31:20;6.70;;;5.38;;
17052;SDS011;8643;48.824;11.422;2022-08-18T13:33:48;8.02;;;5.55;;
17052;SDS011;8643;48.824;11.422;2022-08-18T13:36:24;6.30;;;5.30;;
17052;SDS011;8643;48.824;11.422;2022-08-18T13:39:11;7.50;;;5.93;;
17052;SDS011;8643;48.824;11.422;2022-08-18T13:41:42;8.07;;;5.70;;
17052;SDS011;8643;48.824;11.422;2022-08-18T13:44:13;6.32;;;5.20;;
17052;SDS011;8643;48.824;11.422;2022-08-18T13:46:45;7.28;;;5.28;;
17052;SDS011;8643;48.824;11.422;2022-08-18T13:49:15;6.10;;;5.50;;
17052;SDS011;8643;48.824;11.422;2022-08-18T13:51:57;7.32;;;5.22;;
17052;SDS011;8643;48.824;11.422;2022-08-18T13:54:30;5.10;;;4.70;;
17052;SDS011;8643;48.824;11.422;2022-08-18T13:57:01;8.10;;;5.75;;
17052;SDS011;8643;48.824;11.422;2022-08-18T13:59:32;6.38;;;5.50;;
17052;SDS011;8643;48.824;11.422;2022-08-18T14:02:01;7.07;;;5.20;;
17052;SDS011;8643;48.824;11.422;2022-08-18T14:04:36;6.03;;;5.43;;
17052;SDS011;8643;48.824;11.422;2022-08-18T14:07:11;6.65;;;5.05;;
17052;SDS011;8643;48.824;11.422;2022-08-18T14:09:44;5.40;;;4.90;;
17052;SDS011;8643;48.824;11.422;2022-08-18T14:12:14;6.28;;;5.18;;
17052;SDS011;8643;48.824;11.422;2022-08-18T14:14:54;7.57;;;5.00;;
17052;SDS011;8643;48.824;11.422;2022-08-18T14:17:23;5.63;;;5.00;;
17052;SDS011;8643;48.824;11.422;2022-08-18T14:19:53;9.30;;;5.25;;
17052;SDS011;8643;48.824;11.422;2022-08-18T14:22:48;5.82;;;5.22;;
17052;SDS011;8643;48.824;11.422;2022-08-18T14:25:35;7.90;;;5.10;;
17052;SDS011;8643;48.824;11.422;2022-08-18T14:28:21;5.30;;;4.80;;
17052;SDS011;8643;48.824;11.422;2022-08-18T14:30:50;6.45;;;5.28;;
17052;SDS011;8643;48.824;11.422;2022-08-18T14:33:21;7.75;;;5.03;;
17052;SDS011;8643;48.824;11.422;2022-08-18T14:36:12;6.97;;;4.65;;
17052;SDS011;8643;48.824;11.422;2022-08-18T14:38:44;6.72;;;4.97;;
17052;SDS011;8643;48.824;11.422;2022-08-18T14:41:17;7.60;;;5.50;;
17052;SDS011;8643;48.824;11.422;2022-08-18T14:43:52;5.93;;;5.00;;
17052;SDS011;8643;48.824;11.422;2022-08-18T14:46:39;5.72;;;4.95;;
17052;SDS011;8643;48.824;11.422;2022-08-18T14:49:19;6.22;;;5.35;;
17052;SDS011;8643;48.824;11.422;2022-08-18T14:51:54;7.40;;;5.57;;
17052;SDS011;8643;48.824;11.422;2022-08-18T14:54:24;8.85;;;5.70;;
17052;SDS011;8643;48.824;11.422;2022-08-18T14:56:55;6.70;;;5.65;;
17052;SDS011;8643;48.824;11.422;2022-08-18T14:59:24;7.30;;;5.90;;
17052;SDS011;8643;48.824;11.422;2022-08-18T15:01:53;8.82;;;5.70;;
17052;SDS011;8643;48.824;11.422;2022-08-18T15:04:22;6.40;;;5.72;;
17052;SDS011;8643;48.824;11.422;2022-08-18T15:06:51;10.77;;;6.00;;
17052;SDS011;8643;48.824;11.422;2022-08-18T15:09:22;8.73;;;6.00;;
17052;SDS011;8643;48.824;11.422;2022-08-18T15:11:53;7.03;;;6.03;;
17052;SDS011;8643;48.824;11.422;2022-08-18T15:14:23;7.50;;;5.80;;
17052;SDS011;8643;48.824;11.422;2022-08-18T15:16:59;10.00;;;5.85;;
17052;SDS011;8643;48.824;11.422;2022-08-18T15:19:38;9.23;;;5.72;;
17052;SDS011;8643;48.824;11.422;2022-08-18T15:22:26;7.72;;;5.78;;
17052;SDS011;8643;48.824;11.422;2022-08-18T15:25:15;9.35;;;5.63;;
17052;SDS011;8643;48.824;11.422;2022-08-18T15:28:01;12.60;;;5.93;;
17052;SDS011;8643;48.824;11.422;2022-08-18T15:30:42;8.52;;;5.97;;
17052;SDS011;8643;48.824;11.422;2022-08-18T15:33:17;8.55;;;5.60;;
17052;SDS011;8643;48.824;11.422;2022-08-18T15:35:54;7.35;;;5.80;;
17052;SDS011;8643;48.824;11.422;2022-08-18T15:38:23;8.27;;;5.78;;
17052;SDS011;8643;48.824;11.422;2022-08-18T15:40:54;8.25;;;5.85;;
17052;SDS011;8643;48.824;11.422;2022-08-18T15:43:31;7.93;;;5.55;;
17052;SDS011;8643;48.824;11.422;2022-08-18T15:46:05;8.07;;;5.68;;
17052;SDS011;8643;48.824;11.422;2022-08-18T15:48:33;7.68;;;5.88;;
17052;SDS011;8643;48.824;11.422;2022-08-18T15:51:02;7.35;;;5.80;;
17052;SDS011;8643;48.824;11.422;2022-08-18T15:53:37;7.65;;;5.85;;
17052;SDS011;8643;48.824;11.422;2022-08-18T15:56:13;9.27;;;5.55;;
17052;SDS011;8643;48.824;11.422;2022-08-18T15:58:46;6.60;;;5.80;;
17052;SDS011;8643;48.824;11.422;2022-08-18T16:01:16;8.95;;;6.00;;
17052;SDS011;8643;48.824;11.422;2022-08-18T16:03:58;11.30;;;6.20;;
17052;SDS011;8643;48.824;11.422;2022-08-18T16:06:29;11.82;;;6.47;;